Becks Mills, Ohio
Current Conditions -  °F | °C
As of 5:56 PM on Wednesday 26 Nov 2014 (Local Time) from KBJJ Reporting Station
Overcast Overcast  
Wind Chill: 33°   Ceiling: 3400
Heat Index: 33°   Visibility: 10mi
Dew Point: 27°   Wind: 3mph
Humidity: 78%   Direction: 330°NNW
Pressure: 30.03"   Gusts: NA
Location:  40.5444°N, 81.851°W
Report Text: KBJJ 262256Z AUTO 33003KT 10SM OVC034 01/M03 A3003 RMK AO2 SLP181 T00061028 TSNO
Loading
Personal Weather Stations






























Interactive Weather Map New forecast layout! Learn more

10-Day Weather Forecast

Advertisements
Track Severe Weather on mobile